Time;durP1;ratioP1;P1;durP2;ratioP2;P2;SDS_P1;SDS_P2;PMS_P1;PMS_P2;Temp;Humidity;BMP_temperature;BMP_pressure;BME280_temperature;BME280_humidity;BME280_pressure;Samples;Min_cycle;Max_cycle;Signal;HPM_P1;HPM_P2
2022/05/06 00:00:06;;;;;;;53.13;24.58;;;11.50;99.90;;;;;;5033378;28;20295;-68
2022/05/06 00:02:31;;;;;;;48.28;25.15;;;11.50;99.90;;;;;;5019049;28;20071;-68
2022/05/06 00:04:59;;;;;;;44.17;24.00;;;11.50;99.90;;;;;;5041280;28;20037;-68
2022/05/06 00:07:25;;;;;;;63.05;27.85;;;11.50;99.90;;;;;;5014925;28;20034;-68
2022/05/06 00:09:50;;;;;;;52.40;26.30;;;11.50;99.90;;;;;;5034906;28;20048;-68
2022/05/06 00:12:19;;;;;;;60.67;27.60;;;11.60;99.90;;;;;;5008167;28;20033;-68
2022/05/06 00:14:46;;;;;;;60.63;26.42;;;11.50;99.90;;;;;;5035870;28;20138;-68
2022/05/06 00:17:12;;;;;;;55.45;26.52;;;11.50;99.90;;;;;;5016059;28;20037;-68
2022/05/06 00:19:38;;;;;;;60.85;27.70;;;11.50;99.90;;;;;;5026724;28;20045;-68
2022/05/06 00:22:04;;;;;;;49.92;25.73;;;11.50;99.90;;;;;;5027870;28;20044;-69
2022/05/06 00:24:29;;;;;;;56.30;25.83;;;11.50;99.90;;;;;;5037435;28;20090;-68
2022/05/06 00:26:57;;;;;;;55.83;26.17;;;11.50;99.90;;;;;;5040044;28;20299;-67
2022/05/06 00:29:22;;;;;;;56.17;26.05;;;11.50;99.90;;;;;;5057761;22;20049;-68
2022/05/06 00:31:48;;;;;;;58.40;27.83;;;11.50;99.90;;;;;;5053630;28;20068;-66
2022/05/06 00:34:14;;;;;;;53.00;26.40;;;11.50;99.90;;;;;;5051935;28;20182;-66
2022/05/06 00:36:39;;;;;;;51.80;25.87;;;11.50;99.90;;;;;;5075970;28;20105;-66
2022/05/06 00:39:05;;;;;;;56.00;25.67;;;11.40;99.90;;;;;;5078390;28;20036;-66
2022/05/06 00:41:35;;;;;;;53.13;25.50;;;11.50;99.90;;;;;;5078444;28;20032;-66
2022/05/06 00:44:01;;;;;;;57.85;26.85;;;11.40;99.90;;;;;;5061809;28;20048;-67
2022/05/06 00:46:27;;;;;;;49.33;24.30;;;11.40;99.90;;;;;;5072245;28;20047;-67
2022/05/06 00:48:55;;;;;;;54.00;24.38;;;11.40;99.90;;;;;;5073011;28;20040;-67
2022/05/06 00:51:20;;;;;;;51.97;24.83;;;11.40;99.90;;;;;;5078442;28;20044;-66
2022/05/06 00:53:47;;;;;;;57.20;25.45;;;11.40;99.90;;;;;;5076220;28;20519;-66
2022/05/06 00:56:15;;;;;;;50.83;25.13;;;11.40;99.90;;;;;;5076170;28;20400;-66
2022/05/06 00:58:43;;;;;;;53.05;26.55;;;11.40;99.90;;;;;;5073912;28;20604;-67
2022/05/06 01:01:09;;;;;;;51.22;26.13;;;11.40;99.90;;;;;;5074713;28;20039;-67
2022/05/06 01:03:34;;;;;;;51.43;25.60;;;11.40;99.90;;;;;;5078535;28;20085;-66
2022/05/06 01:06:04;;;;;;;42.77;24.20;;;11.40;99.90;;;;;;5074431;28;20668;-67
2022/05/06 01:08:30;;;;;;;49.03;24.10;;;11.30;99.90;;;;;;5065704;28;20054;-66
2022/05/06 01:10:57;;;;;;;51.25;26.25;;;11.30;99.90;;;;;;5076599;28;20119;-67
2022/05/06 01:13:23;;;;;;;45.47;23.73;;;11.30;99.90;;;;;;5080129;28;20459;-66
2022/05/06 01:15:49;;;;;;;47.78;24.10;;;11.20;99.90;;;;;;5077277;28;20104;-66
2022/05/06 01:18:15;;;;;;;46.45;24.63;;;11.20;99.90;;;;;;5078261;28;20191;-67
2022/05/06 01:20:48;;;;;;;51.60;24.77;;;11.10;99.90;;;;;;5050710;28;20072;-67
2022/05/06 01:23:14;;;;;;;50.63;25.48;;;11.10;99.90;;;;;;5075601;28;20342;-67
2022/05/06 01:25:39;;;;;;;46.67;25.38;;;11.00;99.90;;;;;;5078230;28;20037;-67
2022/05/06 01:28:06;;;;;;;57.67;26.43;;;11.00;99.90;;;;;;5056961;28;20052;-66
2022/05/06 01:30:37;;;;;;;50.75;23.92;;;11.00;99.90;;;;;;5071202;28;20051;-66
2022/05/06 01:33:24;;;;;;;55.15;24.83;;;10.90;99.90;;;;;;5080605;28;20047;-66
2022/05/06 01:36:00;;;;;;;49.03;24.50;;;10.90;99.90;;;;;;5070511;28;20067;-66
2022/05/06 01:38:26;;;;;;;47.67;23.85;;;10.80;99.90;;;;;;5052816;28;20032;-66
2022/05/06 01:40:58;;;;;;;45.08;24.02;;;10.70;99.90;;;;;;5072968;28;20098;-66
2022/05/06 01:43:25;;;;;;;45.15;22.83;;;10.70;99.90;;;;;;5080527;28;20064;-66
2022/05/06 01:45:54;;;;;;;44.67;22.00;;;10.70;99.90;;;;;;5073423;28;20137;-66
2022/05/06 01:48:21;;;;;;;41.75;20.85;;;10.60;99.90;;;;;;5073842;28;20036;-67
2022/05/06 01:50:48;;;;;;;37.90;19.33;;;10.60;99.90;;;;;;5073149;28;20036;-67
2022/05/06 01:53:16;;;;;;;35.17;18.58;;;10.50;99.90;;;;;;5062293;28;20374;-66
2022/05/06 01:55:43;;;;;;;37.95;18.92;;;10.60;99.90;;;;;;5082993;28;20118;-67
2022/05/06 01:58:09;;;;;;;34.17;17.95;;;10.50;99.90;;;;;;5072912;28;20455;-66
2022/05/06 02:00:36;;;;;;;34.20;18.02;;;10.50;99.90;;;;;;5074376;28;20035;-66
2022/05/06 02:03:02;;;;;;;;;;;10.40;99.90;;;;;;5071980;28;20048;-66
2022/05/06 02:05:27;;;;;;;32.25;17.02;;;10.40;99.90;;;;;;5074200;28;19916;-68
2022/05/06 02:07:57;;;;;;;29.27;16.37;;;10.40;99.90;;;;;;5062004;28;20461;-66
2022/05/06 02:10:23;;;;;;;28.35;15.77;;;10.50;99.90;;;;;;5074809;28;20046;-66
2022/05/06 02:12:49;;;;;;;34.63;16.25;;;10.50;99.90;;;;;;5068489;28;20546;-66
2022/05/06 02:15:17;;;;;;;32.23;15.97;;;10.50;99.90;;;;;;5067100;28;20143;-66
2022/05/06 02:17:43;;;;;;;35.78;18.48;;;10.60;99.90;;;;;;5052535;28;20039;-65
2022/05/06 02:20:10;;;;;;;38.92;18.95;;;10.60;99.90;;;;;;5069455;28;20123;-67
2022/05/06 02:22:38;;;;;;;37.03;19.05;;;10.70;99.90;;;;;;5072424;28;20197;-66
2022/05/06 02:25:05;;;;;;;39.60;19.38;;;10.70;99.90;;;;;;5077170;28;20036;-67
2022/05/06 02:27:31;;;;;;;44.97;20.02;;;10.70;99.90;;;;;;5077589;28;20043;-66
2022/05/06 02:35:28;;;;;;;45.03;20.58;;;10.80;99.90;;;;;;5076156;28;20040;-66
2022/05/06 02:37:55;;;;;;;44.17;20.20;;;10.80;99.90;;;;;;5051081;28;20041;-67
2022/05/06 02:40:21;;;;;;;58.15;24.42;;;10.80;99.90;;;;;;5052818;28;20130;-67
2022/05/06 02:42:46;;;;;;;56.35;24.15;;;10.90;99.90;;;;;;5074935;28;20044;-67
2022/05/06 02:45:12;;;;;;;59.03;24.83;;;10.90;99.90;;;;;;5073012;28;20046;-67
2022/05/06 02:47:37;;;;;;;53.50;22.83;;;10.90;99.90;;;;;;5073239;28;20075;-66
2022/05/06 02:50:04;;;;;;;58.80;24.30;;;10.90;99.90;;;;;;5075978;28;20066;-67
2022/05/06 02:52:30;;;;;;;54.72;24.58;;;10.90;99.90;;;;;;5068629;28;20032;-66
2022/05/06 02:54:56;;;;;;;54.22;22.83;;;10.90;99.90;;;;;;5078261;28;20042;-67
2022/05/06 02:57:21;;;;;;;66.10;23.97;;;10.90;99.90;;;;;;5055970;28;20040;-68
2022/05/06 02:59:47;;;;;;;56.63;24.88;;;10.90;99.90;;;;;;5074218;28;20090;-66
2022/05/06 03:02:13;;;;;;;61.23;25.20;;;10.90;99.90;;;;;;5070210;28;20472;-67
2022/05/06 03:04:38;;;;;;;61.40;24.20;;;10.90;99.90;;;;;;5073133;28;20059;-67
2022/05/06 03:07:06;;;;;;;57.20;24.17;;;10.90;99.90;;;;;;5056125;28;20113;-67
2022/05/06 03:09:38;;;;;;;58.28;23.90;;;10.90;99.90;;;;;;5074374;28;20048;-67
2022/05/06 03:12:04;;;;;;;57.92;25.38;;;11.00;99.90;;;;;;5073342;28;20385;-67
2022/05/06 03:14:29;;;;;;;61.03;24.27;;;10.90;99.90;;;;;;5071779;28;20123;-66
2022/05/06 03:16:55;;;;;;;60.77;23.77;;;10.90;99.90;;;;;;5070242;28;20737;-66
2022/05/06 03:19:20;;;;;;;58.90;24.87;;;11.00;99.90;;;;;;5076581;28;20044;-67
2022/05/06 03:21:51;;;;;;;61.87;24.77;;;11.00;99.90;;;;;;5056900;28;20127;-67
2022/05/06 03:24:17;;;;;;;56.92;23.63;;;11.00;99.90;;;;;;5073945;28;20036;-67
2022/05/06 03:26:43;;;;;;;66.72;24.05;;;11.00;99.90;;;;;;5072625;28;20093;-67
2022/05/06 03:29:09;;;;;;;55.73;23.20;;;11.00;99.90;;;;;;5071134;28;20394;-67
2022/05/06 03:31:36;;;;;;;61.45;25.48;;;11.00;99.90;;;;;;5074831;28;20054;-67
2022/05/06 03:34:02;;;;;;;61.13;24.33;;;11.00;99.90;;;;;;5069930;28;20042;-67
2022/05/06 03:36:28;;;;;;;68.55;23.10;;;11.00;99.90;;;;;;5064649;28;20492;-66
2022/05/06 03:38:54;;;;;;;68.83;24.70;;;11.00;99.90;;;;;;5053499;28;20117;-67
2022/05/06 03:41:19;;;;;;;54.70;22.63;;;10.90;99.90;;;;;;5078270;28;20653;-67
2022/05/06 03:43:45;;;;;;;62.80;21.37;;;10.90;99.90;;;;;;5077230;28;20473;-66
2022/05/06 03:46:10;;;;;;;52.20;21.27;;;10.90;99.90;;;;;;5077468;28;20127;-66
2022/05/06 03:48:36;;;;;;;65.27;20.60;;;10.90;99.90;;;;;;5071936;28;20500;-67
2022/05/06 03:53:53;;;;;;;52.58;21.38;;;10.80;99.90;;;;;;5075638;28;20040;-67
2022/05/06 03:56:19;;;;;;;52.75;21.30;;;10.80;99.90;;;;;;5071497;28;20052;-67
2022/05/06 03:58:45;;;;;;;63.03;21.30;;;10.80;99.90;;;;;;5071314;28;20516;-67
2022/05/06 04:01:11;;;;;;;48.75;19.63;;;10.80;99.90;;;;;;5072756;28;20138;-67
2022/05/06 04:03:41;;;;;;;60.72;20.52;;;10.80;99.90;;;;;;5071137;28;20131;-68
2022/05/06 04:06:06;;;;;;;49.45;20.95;;;10.70;99.90;;;;;;5054626;28;20036;-67
2022/05/06 04:08:32;;;;;;;57.30;21.37;;;10.70;99.90;;;;;;5064129;28;20051;-66
2022/05/06 04:10:58;;;;;;;64.03;22.05;;;10.80;99.90;;;;;;5068057;28;20089;-66
2022/05/06 04:13:24;;;;;;;55.40;20.40;;;10.80;99.90;;;;;;5062907;28;20499;-66
2022/05/06 04:15:50;;;;;;;57.15;20.33;;;10.80;99.90;;;;;;5074897;28;20184;-67
2022/05/06 04:18:17;;;;;;;51.55;21.92;;;10.80;99.90;;;;;;5080099;28;20090;-67
2022/05/06 04:23:30;;;;;;;;;;;10.80;99.90;;;;;;5076140;28;20093;-67
2022/05/06 04:26:00;;;;;;;54.60;19.70;;;10.80;99.90;;;;;;5082814;28;20265;-67
2022/05/06 04:28:27;;;;;;;56.42;22.63;;;10.80;99.90;;;;;;5057729;28;20071;-67
2022/05/06 04:30:52;;;;;;;54.65;21.92;;;10.80;99.90;;;;;;5078086;28;20036;-67
2022/05/06 04:33:19;;;;;;;57.97;21.02;;;10.90;99.90;;;;;;5076085;28;20067;-66
2022/05/06 04:35:45;;;;;;;;;;;10.90;99.90;;;;;;5081362;28;20611;-67
2022/05/06 04:38:11;;;;;;;49.92;19.77;;;10.90;99.90;;;;;;5067021;28;19916;-67
2022/05/06 04:40:38;;;;;;;51.90;19.77;;;10.90;99.90;;;;;;5052952;28;20118;-66
2022/05/06 04:43:06;;;;;;;;;;;10.90;99.90;;;;;;5074990;28;20115;-67
2022/05/06 04:45:36;;;;;;;50.50;16.85;;;10.90;99.90;;;;;;5079342;28;19916;-67
2022/05/06 04:48:04;;;;;;;47.58;17.48;;;10.90;99.90;;;;;;5077032;28;20473;-67
2022/05/06 04:50:32;;;;;;;37.50;15.23;;;10.90;99.90;;;;;;5054350;28;20210;-67
2022/05/06 04:52:58;;;;;;;35.03;15.10;;;10.80;99.90;;;;;;5054366;28;20271;-67
2022/05/06 04:55:24;;;;;;;52.97;14.33;;;10.80;99.90;;;;;;5073312;28;20031;-67
2022/05/06 04:57:49;;;;;;;44.83;15.13;;;10.80;99.90;;;;;;5065548;28;20119;-66
2022/05/06 05:00:15;;;;;;;45.57;15.53;;;10.80;99.90;;;;;;5077506;28;20196;-66
2022/05/06 05:02:41;;;;;;;38.65;14.82;;;10.80;99.90;;;;;;5071439;28;20516;-66
2022/05/06 05:05:07;;;;;;;51.00;13.87;;;10.90;99.90;;;;;;5074533;28;20097;-66
2022/05/06 05:07:32;;;;;;;42.83;15.82;;;10.90;99.90;;;;;;5064999;28;20509;-65
2022/05/06 05:09:58;;;;;;;44.57;16.13;;;10.90;99.90;;;;;;5079474;28;20494;-65
2022/05/06 05:12:24;;;;;;;45.43;16.97;;;10.90;99.90;;;;;;5073094;28;20111;-66
2022/05/06 05:14:51;;;;;;;45.85;15.43;;;11.00;99.90;;;;;;5077745;28;20626;-66
2022/05/06 05:17:16;;;;;;;;;;;11.00;99.90;;;;;;5086860;28;20437;-65
2022/05/06 05:19:43;;;;;;;37.50;16.67;;;11.00;99.90;;;;;;5058335;28;19916;-66
2022/05/06 05:22:09;;;;;;;43.20;17.23;;;11.00;99.90;;;;;;5076019;28;20040;-66
2022/05/06 05:24:35;;;;;;;38.30;16.33;;;11.10;99.90;;;;;;5070897;28;20074;-66
2022/05/06 05:27:01;;;;;;;32.58;14.10;;;11.10;99.90;;;;;;5074498;28;20482;-66
2022/05/06 05:29:27;;;;;;;32.30;13.15;;;11.10;99.90;;;;;;5073911;28;20056;-66
2022/05/06 05:31:53;;;;;;;33.90;14.43;;;11.10;99.90;;;;;;5071593;28;20041;-66
2022/05/06 05:34:19;;;;;;;33.60;13.30;;;11.10;99.90;;;;;;5079623;28;20130;-66
2022/05/06 05:36:45;;;;;;;34.42;14.20;;;11.20;99.90;;;;;;5054995;28;20036;-65
2022/05/06 05:39:11;;;;;;;30.27;13.07;;;11.20;99.90;;;;;;5063399;28;20730;-66
2022/05/06 05:41:38;;;;;;;25.15;10.60;;;11.20;99.90;;;;;;5058788;28;20047;-65
2022/05/06 05:49:32;;;;;;;21.75;10.50;;;11.10;99.90;;;;;;5075891;28;20048;-66
2022/05/06 05:51:58;;;;;;;19.00;9.17;;;11.10;99.90;;;;;;5057943;28;20038;-65
2022/05/06 05:54:24;;;;;;;17.27;8.18;;;11.10;99.90;;;;;;5075765;28;20037;-66
2022/05/06 05:56:50;;;;;;;19.13;8.07;;;11.20;99.90;;;;;;5074359;28;20186;-66
2022/05/06 05:59:15;;;;;;;18.60;9.50;;;11.20;99.90;;;;;;5073855;28;20162;-66
2022/05/06 06:01:41;;;;;;;15.37;7.73;;;11.20;99.90;;;;;;5074575;28;20060;-66
2022/05/06 06:04:07;;;;;;;17.25;7.95;;;11.10;99.90;;;;;;5074017;28;20460;-65
2022/05/06 06:06:32;;;;;;;15.53;8.30;;;11.20;99.90;;;;;;5079368;28;20060;-65
2022/05/06 06:08:58;;;;;;;20.27;9.43;;;11.20;99.90;;;;;;5072252;28;20124;-65
2022/05/06 06:11:23;;;;;;;16.93;7.97;;;11.20;99.90;;;;;;5074149;28;20044;-66
2022/05/06 06:13:49;;;;;;;15.80;8.00;;;11.30;99.90;;;;;;5053289;28;20473;-66
2022/05/06 06:16:16;;;;;;;19.13;8.13;;;11.30;99.90;;;;;;5065689;28;20114;-65
2022/05/06 06:18:42;;;;;;;16.88;9.07;;;11.30;99.90;;;;;;5069660;28;20460;-66
2022/05/06 06:21:07;;;;;;;12.03;6.70;;;11.40;99.90;;;;;;5074006;28;20043;-66
2022/05/06 06:23:33;;;;;;;14.07;7.53;;;11.40;99.90;;;;;;5070357;28;20043;-74
2022/05/06 06:25:59;;;;;;;14.07;7.10;;;11.40;99.90;;;;;;5071719;28;20040;-68
2022/05/06 06:28:24;;;;;;;11.35;6.63;;;11.40;99.90;;;;;;5074917;28;20039;-65
2022/05/06 06:30:50;;;;;;;9.07;5.03;;;11.40;99.90;;;;;;5127727;22;20033;-68
2022/05/06 06:33:16;;;;;;;10.30;5.60;;;11.40;99.90;;;;;;5042579;28;20045;-68
2022/05/06 06:35:42;;;;;;;10.75;5.47;;;11.40;99.90;;;;;;5018609;28;20041;-67
2022/05/06 06:38:07;;;;;;;11.05;5.70;;;11.40;99.90;;;;;;5004400;28;20041;-67
2022/05/06 06:40:34;;;;;;;9.00;5.13;;;11.50;99.90;;;;;;5004549;28;20040;-67
2022/05/06 06:43:04;;;;;;;9.70;5.72;;;11.40;99.90;;;;;;5011242;28;20507;-67
2022/05/06 06:45:31;;;;;;;8.70;5.03;;;11.50;99.90;;;;;;5019678;28;20042;-67
2022/05/06 06:47:57;;;;;;;9.07;5.45;;;11.50;99.90;;;;;;5006448;28;20095;-69
2022/05/06 06:50:26;;;;;;;10.13;5.90;;;11.50;99.90;;;;;;5014121;28;20046;-68
2022/05/06 06:52:52;;;;;;;9.73;5.60;;;11.50;99.90;;;;;;4997758;28;20612;-67
2022/05/06 06:55:18;;;;;;;9.88;5.82;;;11.50;99.90;;;;;;5019234;28;20071;-68
2022/05/06 06:57:44;;;;;;;10.95;6.72;;;11.60;99.90;;;;;;5011025;28;20029;-68
2022/05/06 07:00:11;;;;;;;11.80;6.80;;;11.60;99.90;;;;;;5016201;28;20049;-68
2022/05/06 07:02:38;;;;;;;11.68;6.13;;;11.60;99.90;;;;;;5018038;28;20037;-68
2022/05/06 07:05:04;;;;;;;12.57;7.15;;;11.60;99.90;;;;;;5022978;28;20430;-68
2022/05/06 07:12:58;;;;;;;10.38;7.18;;;11.70;99.90;;;;;;5010432;28;20132;-68
2022/05/06 07:15:24;;;;;;;13.50;7.80;;;11.80;99.90;;;;;;5022806;28;20405;-67
2022/05/06 07:17:50;;;;;;;12.90;8.38;;;11.80;99.90;;;;;;4998607;28;20037;-68
2022/05/06 07:20:15;;;;;;;13.88;8.43;;;11.80;99.90;;;;;;5016564;28;20210;-67
2022/05/06 07:22:42;;;;;;;13.52;8.55;;;11.90;99.90;;;;;;5020834;28;20053;-67
2022/05/06 07:25:08;;;;;;;11.95;7.25;;;11.90;99.90;;;;;;5010951;28;20038;-68
2022/05/06 07:27:35;;;;;;;11.32;6.82;;;12.00;99.90;;;;;;5016283;28;20030;-67
2022/05/06 07:30:06;;;;;;;10.13;6.55;;;12.00;99.90;;;;;;5016111;28;20103;-67
2022/05/06 07:32:32;;;;;;;10.27;6.07;;;12.20;99.90;;;;;;5023590;28;20042;-67
2022/05/06 07:34:58;;;;;;;10.65;7.22;;;12.20;99.90;;;;;;5021548;28;20490;-70
2022/05/06 07:37:24;;;;;;;9.07;5.60;;;12.30;99.90;;;;;;5018403;28;20033;-68
2022/05/06 07:39:50;;;;;;;12.15;6.93;;;12.30;99.90;;;;;;5000070;28;20038;-67
2022/05/06 07:42:16;;;;;;;10.88;6.05;;;12.40;99.90;;;;;;5018765;28;20037;-67
2022/05/06 07:44:42;;;;;;;8.25;5.95;;;12.40;99.90;;;;;;4997206;28;20069;-67
2022/05/06 07:47:07;;;;;;;12.02;7.25;;;12.40;99.90;;;;;;5009236;28;20112;-68
2022/05/06 07:49:33;;;;;;;9.63;6.77;;;12.30;99.90;;;;;;5025746;28;20450;-67
2022/05/06 07:51:58;;;;;;;8.77;6.03;;;12.40;99.90;;;;;;5025265;28;20042;-68
2022/05/06 07:54:24;;;;;;;9.20;6.37;;;12.50;99.90;;;;;;5018640;28;20048;-69
2022/05/06 07:56:50;;;;;;;10.93;6.53;;;12.60;99.90;;;;;;5028927;28;20066;-67
2022/05/06 07:59:15;;;;;;;7.93;5.50;;;12.60;99.90;;;;;;5023702;28;20045;-68
2022/05/06 08:04:36;;;;;;;8.32;5.45;;;12.90;99.90;;;;;;5021980;28;20077;-69
2022/05/06 08:07:03;;;;;;;7.45;4.82;;;13.00;99.90;;;;;;5020303;28;20046;-67
2022/05/06 08:09:28;;;;;;;9.10;5.72;;;13.10;99.90;;;;;;5007340;28;20052;-68
2022/05/06 08:11:54;;;;;;;9.97;6.63;;;13.20;99.90;;;;;;5015097;28;20042;-69
2022/05/06 08:14:20;;;;;;;9.17;6.20;;;13.30;99.90;;;;;;5015776;28;20046;-70
2022/05/06 08:16:47;;;;;;;9.20;5.20;;;13.30;99.90;;;;;;5020929;28;20041;-69
2022/05/06 08:19:13;;;;;;;10.07;5.35;;;13.40;99.90;;;;;;5023232;28;20041;-71
2022/05/06 08:21:39;;;;;;;8.40;5.47;;;13.40;99.90;;;;;;5018362;28;20482;-68
2022/05/06 08:24:05;;;;;;;;;;;13.50;99.90;;;;;;5005942;28;20073;-70
2022/05/06 08:26:31;;;;;;;8.98;6.05;;;13.50;99.90;;;;;;5020845;28;19917;-70
2022/05/06 08:28:56;;;;;;;9.07;6.43;;;13.60;99.90;;;;;;5024411;28;20117;-70
2022/05/06 08:31:22;;;;;;;9.60;6.37;;;13.60;99.90;;;;;;5007924;28;20116;-65
2022/05/06 08:33:47;;;;;;;8.30;5.83;;;13.70;99.90;;;;;;5024844;28;20540;-69
2022/05/06 08:36:14;;;;;;;8.20;5.57;;;13.80;99.90;;;;;;5002100;28;20076;-65
2022/05/06 08:38:39;;;;;;;8.68;6.15;;;13.90;99.90;;;;;;4995837;28;20450;-67
2022/05/06 08:41:05;;;;;;;8.47;5.23;;;13.90;99.90;;;;;;4980271;28;20148;-70
2022/05/06 08:43:32;;;;;;;7.72;5.05;;;14.00;99.90;;;;;;5024220;28;20033;-66
2022/05/06 08:51:31;;;;;;;7.63;5.30;;;14.10;99.90;;;;;;5017733;28;20038;-66
2022/05/06 08:53:58;;;;;;;7.63;4.88;;;14.20;99.90;;;;;;5023827;28;20072;-65
2022/05/06 08:56:23;;;;;;;;;;;14.30;99.90;;;;;;5012365;28;20034;-66
2022/05/06 08:58:49;;;;;;;7.85;5.20;;;14.20;99.90;;;;;;5008339;28;19963;-66
2022/05/06 09:01:20;;;;;;;8.05;5.18;;;14.30;99.90;;;;;;5021114;28;20496;-66
2022/05/06 09:03:49;;;;;;;9.00;5.30;;;14.30;99.90;;;;;;5020552;28;20035;-65
2022/05/06 09:06:19;;;;;;;8.40;4.25;;;14.40;99.90;;;;;;5010439;28;20048;-66
2022/05/06 09:08:46;;;;;;;9.07;5.80;;;14.50;99.90;;;;;;5003672;28;20104;-67
2022/05/06 09:11:12;;;;;;;7.85;4.88;;;14.60;99.90;;;;;;5001986;28;20037;-67
2022/05/06 09:13:49;;;;;;;6.78;4.35;;;14.70;99.90;;;;;;4984914;28;20072;-67
2022/05/06 09:16:44;;;;;;;6.20;4.68;;;14.90;99.90;;;;;;4988668;28;20406;-67
2022/05/06 09:19:25;;;;;;;7.30;4.40;;;15.00;99.90;;;;;;5015997;28;20487;-67
2022/05/06 09:22:14;;;;;;;8.52;4.05;;;15.20;99.90;;;;;;5011620;28;20332;-68
2022/05/06 09:24:52;;;;;;;6.60;3.83;;;15.30;99.90;;;;;;5016963;28;20120;-68
2022/05/06 09:27:19;;;;;;;5.60;3.92;;;15.40;99.90;;;;;;5012070;28;20045;-72
2022/05/06 09:29:49;;;;;;;5.93;3.97;;;15.50;99.90;;;;;;4988883;28;20545;-73
2022/05/06 09:32:20;;;;;;;5.78;3.33;;;15.60;99.90;;;;;;5010854;28;20107;-65
2022/05/06 09:34:48;;;;;;;9.80;4.25;;;15.60;99.90;;;;;;5011863;28;20142;-66
2022/05/06 09:37:33;;;;;;;4.75;3.28;;;15.70;99.90;;;;;;5027885;28;20052;-65
2022/05/06 09:40:09;;;;;;;6.10;3.47;;;15.80;99.90;;;;;;5018240;28;20128;-65
2022/05/06 09:42:37;;;;;;;5.13;3.40;;;15.90;99.90;;;;;;5005996;28;20037;-65
2022/05/06 09:45:03;;;;;;;4.50;3.28;;;15.90;99.90;;;;;;5010472;28;20056;-65
2022/05/06 09:47:32;;;;;;;6.18;3.53;;;16.00;99.90;;;;;;5020420;28;20189;-65
2022/05/06 09:49:57;;;;;;;4.75;3.22;;;16.10;99.90;;;;;;5010978;28;20052;-65
2022/05/06 09:52:23;;;;;;;4.05;3.00;;;16.10;99.90;;;;;;5014372;28;20038;-66
2022/05/06 09:54:48;;;;;;;4.90;3.22;;;16.10;99.90;;;;;;5020697;28;20461;-68
2022/05/06 09:57:16;;;;;;;4.60;3.33;;;16.20;99.90;;;;;;5003897;28;20088;-65
2022/05/06 09:59:42;;;;;;;9.27;2.80;;;16.40;99.90;;;;;;5028480;28;20045;-66
2022/05/06 10:02:08;;;;;;;3.17;2.28;;;16.50;99.90;;;;;;5015743;28;20040;-68
2022/05/06 10:04:38;;;;;;;6.78;3.30;;;16.70;99.90;;;;;;5000432;28;20052;-66
2022/05/06 10:07:11;;;;;;;5.03;2.20;;;16.70;99.90;;;;;;5020442;28;20046;-70
2022/05/06 10:09:47;;;;;;;5.55;2.13;;;16.80;99.90;;;;;;5020011;28;20102;-66
2022/05/06 10:12:15;;;;;;;2.72;1.83;;;16.80;99.90;;;;;;5001724;28;20053;-70
2022/05/06 10:14:42;;;;;;;2.97;1.95;;;16.90;99.90;;;;;;5022318;28;20041;-66
2022/05/06 10:17:09;;;;;;;2.90;1.95;;;17.00;99.90;;;;;;5002495;28;20343;-66
2022/05/06 10:19:38;;;;;;;2.97;1.90;;;17.10;99.90;;;;;;5019761;28;20094;-67
2022/05/06 10:22:04;;;;;;;3.90;2.40;;;17.20;99.90;;;;;;5019863;28;20095;-67
2022/05/06 10:24:40;;;;;;;;;;;17.30;99.90;;;;;;5028063;28;20378;-67
2022/05/06 10:27:24;;;;;;;3.17;2.28;;;17.20;99.90;;;;;;5007459;28;19917;-73
2022/05/06 10:32:55;;;;;;;2.63;2.00;;;17.00;99.90;;;;;;5004531;28;20755;-74
2022/05/06 10:35:37;;;;;;;2.80;1.75;;;17.10;99.90;;;;;;5019358;28;20033;-73
2022/05/06 10:38:21;;;;;;;4.03;2.65;;;17.30;99.90;;;;;;5027746;28;20464;-75
2022/05/06 10:40:56;;;;;;;5.13;3.05;;;17.40;99.90;;;;;;5022428;28;20041;-68
2022/05/06 10:43:48;;;;;;;3.78;2.70;;;17.40;99.90;;;;;;5018959;28;20511;-68
2022/05/06 10:46:34;;;;;;;3.75;2.63;;;17.50;99.90;;;;;;4987703;28;20076;-68
2022/05/06 10:49:34;;;;;;;5.03;3.13;;;17.70;99.90;;;;;;5028568;28;20037;-72
2022/05/06 10:52:28;;;;;;;6.45;3.50;;;17.60;99.90;;;;;;5011092;28;20054;-71
2022/05/06 10:55:02;;;;;;;4.88;3.30;;;17.40;99.90;;;;;;5030649;28;20119;-70
2022/05/06 10:57:30;;;;;;;5.15;3.45;;;17.40;99.90;;;;;;5010582;28;20257;-70
2022/05/06 11:00:04;;;;;;;5.63;3.20;;;17.50;99.90;;;;;;4997585;28;20493;-71
2022/05/06 11:02:32;;;;;;;7.50;3.92;;;17.50;99.90;;;;;;5030947;28;20485;-70
2022/05/06 11:05:05;;;;;;;4.55;2.72;;;17.70;99.90;;;;;;5034352;28;20145;-70
2022/05/06 11:07:32;;;;;;;4.22;2.40;;;17.80;99.90;;;;;;5000548;28;20524;-70
2022/05/06 11:09:59;;;;;;;7.03;3.10;;;17.90;99.90;;;;;;5016247;28;20265;-70
2022/05/06 11:12:28;;;;;;;;;;;17.90;99.90;;;;;;5002859;28;20037;-70
2022/05/06 11:15:05;;;;;;;6.25;4.70;;;17.90;99.90;;;;;;5028909;28;19924;-66
2022/05/06 11:17:32;;;;;;;6.60;3.15;;;18.00;99.90;;;;;;5029874;28;20098;-65
2022/05/06 11:19:59;;;;;;;6.70;3.72;;;18.00;99.90;;;;;;5028948;28;20100;-66
2022/05/06 11:22:25;;;;;;;5.72;3.90;;;18.20;99.90;;;;;;5026502;28;20041;-66
2022/05/06 11:24:58;;;;;;;5.00;3.75;;;18.30;99.90;;;;;;5021131;28;20057;-66
2022/05/06 11:27:24;;;;;;;4.00;2.75;;;18.30;99.90;;;;;;5024833;28;20112;-66
2022/05/06 11:29:57;;;;;;;6.28;3.72;;;18.30;99.90;;;;;;5024406;28;20041;-66
2022/05/06 11:32:32;;;;;;;7.38;2.80;;;18.40;99.90;;;;;;5024545;28;20053;-66
2022/05/06 11:34:57;;;;;;;4.30;1.92;;;18.60;99.50;;;;;;5017710;28;20041;-64
2022/05/06 11:37:25;;;;;;;6.00;2.53;;;18.70;99.90;;;;;;5029096;28;20047;-65
2022/05/06 11:39:51;;;;;;;3.72;2.40;;;18.80;99.90;;;;;;5023394;28;20608;-65
2022/05/06 11:42:23;;;;;;;4.97;2.65;;;19.00;99.90;;;;;;5026267;28;20137;-66
2022/05/06 11:47:44;;;;;;;7.20;4.25;;;19.20;94.00;;;;;;5030789;28;20056;-65
2022/05/06 11:50:10;;;;;;;4.75;3.63;;;19.10;96.90;;;;;;5024647;28;20038;-66
2022/05/06 11:52:37;;;;;;;5.00;3.25;;;19.30;99.30;;;;;;5005770;28;20506;-66
2022/05/06 11:55:05;;;;;;;7.60;3.75;;;19.30;98.10;;;;;;5004314;28;20046;-65
2022/05/06 11:57:31;;;;;;;4.15;2.58;;;19.30;97.80;;;;;;5023793;28;20087;-66
2022/05/06 11:59:57;;;;;;;4.65;2.20;;;19.30;98.00;;;;;;5026422;28;20045;-66
2022/05/06 12:02:23;;;;;;;4.75;3.22;;;19.40;98.50;;;;;;5026353;28;20054;-66
2022/05/06 12:04:48;;;;;;;5.35;3.00;;;19.60;96.70;;;;;;5025384;28;20060;-65
2022/05/06 12:07:14;;;;;;;7.10;2.65;;;19.70;97.20;;;;;;5022941;28;20525;-64
2022/05/06 12:09:43;;;;;;;5.47;2.60;;;19.90;96.40;;;;;;5011779;28;20041;-65
2022/05/06 12:12:10;;;;;;;4.95;2.90;;;19.90;95.00;;;;;;4998203;28;20072;-65
2022/05/06 12:14:37;;;;;;;4.55;2.60;;;19.90;96.40;;;;;;5018531;28;20049;-65
2022/05/06 12:17:05;;;;;;;5.38;3.03;;;19.90;93.70;;;;;;5026556;28;20049;-64
2022/05/06 12:19:37;;;;;;;5.53;3.17;;;20.00;93.50;;;;;;5015730;28;20037;-65
2022/05/06 12:22:10;;;;;;;6.18;3.45;;;20.00;92.70;;;;;;5016565;28;20038;-65
2022/05/06 12:24:44;;;;;;;4.93;3.33;;;19.90;90.50;;;;;;5017316;28;20042;-65
2022/05/06 12:27:10;;;;;;;5.35;3.33;;;20.00;93.40;;;;;;5022368;28;20080;-65
2022/05/06 12:29:37;;;;;;;6.55;3.95;;;19.90;93.40;;;;;;5020740;28;20455;-65
2022/05/06 12:32:04;;;;;;;5.40;3.17;;;20.00;93.90;;;;;;5105210;23;20416;-67
2022/05/06 12:34:33;;;;;;;7.35;3.63;;;20.10;94.10;;;;;;5066723;28;20052;-67
2022/05/06 12:37:18;;;;;;;8.45;3.85;;;20.10;93.00;;;;;;5065032;28;20423;-67
2022/05/06 12:39:50;;;;;;;5.88;3.78;;;20.10;92.50;;;;;;5042907;28;20062;-69
2022/05/06 12:42:16;;;;;;;11.50;4.90;;;20.10;92.60;;;;;;5035462;28;20131;-66
2022/05/06 12:44:43;;;;;;;6.93;4.63;;;20.10;93.80;;;;;;5070211;28;20055;-66
2022/05/06 12:50:05;;;;;;;9.18;6.00;;;20.10;89.00;;;;;;5076012;28;20140;-66
2022/05/06 12:52:32;;;;;;;8.68;5.18;;;19.90;91.80;;;;;;5035522;28;20086;-66
2022/05/06 12:54:58;;;;;;;8.27;5.68;;;19.90;93.20;;;;;;5049317;28;20040;-67
2022/05/06 12:57:24;;;;;;;11.00;5.90;;;19.80;94.30;;;;;;5062935;28;20041;-66
2022/05/06 12:59:50;;;;;;;10.23;6.25;;;20.00;95.40;;;;;;5080854;28;20036;-66
2022/05/06 13:02:15;;;;;;;;;;;20.00;95.30;;;;;;5076323;28;20051;-67
2022/05/06 13:04:41;;;;;;;11.68;6.30;;;20.00;93.50;;;;;;5070114;28;20110;-66
2022/05/06 13:07:07;;;;;;;9.40;6.32;;;20.10;95.50;;;;;;5070712;28;20036;-67
2022/05/06 13:09:32;;;;;;;11.68;6.85;;;20.20;94.50;;;;;;5068766;28;20131;-67
2022/05/06 13:11:58;;;;;;;11.27;6.93;;;20.30;94.00;;;;;;5054020;28;20033;-67
2022/05/06 13:14:23;;;;;;;12.77;7.13;;;20.60;92.80;;;;;;5083532;28;20131;-67
2022/05/06 13:16:51;;;;;;;13.00;7.45;;;20.70;91.90;;;;;;5080611;28;20123;-67
2022/05/06 13:19:16;;;;;;;10.95;7.25;;;20.80;87.10;;;;;;5051965;28;20317;-67